sensor_id;sensor_type;location;lat;lon;timestamp;pressure;altitude;pressure_sealevel;temperature;humidity
23016;BME280;11674;52.428;13.584;2023-05-06T00:04:13;101462.31;;;12.60;55.96
23016;BME280;11674;52.428;13.584;2023-05-06T00:09:21;101464.84;;;12.57;57.09
23016;BME280;11674;52.428;13.584;2023-05-06T00:14:27;101457.91;;;12.54;61.84
23016;BME280;11674;52.428;13.584;2023-05-06T00:19:34;101465.47;;;12.44;64.65
23016;BME280;11674;52.428;13.584;2023-05-06T00:24:42;101466.31;;;12.39;66.32
23016;BME280;11674;52.428;13.584;2023-05-06T00:29:48;101474.13;;;12.37;67.67
23016;BME280;11674;52.428;13.584;2023-05-06T00:34:56;101477.75;;;12.43;68.95
23016;BME280;11674;52.428;13.584;2023-05-06T00:40:03;101476.63;;;12.44;69.78
23016;BME280;11674;52.428;13.584;2023-05-06T00:45:10;101476.03;;;12.42;70.58
23016;BME280;11674;52.428;13.584;2023-05-06T00:50:17;101462.75;;;12.34;71.37
23016;BME280;11674;52.428;13.584;2023-05-06T00:55:25;101453.06;;;12.21;72.00
23016;BME280;11674;52.428;13.584;2023-05-06T01:00:33;101443.84;;;12.21;72.74
23016;BME280;11674;52.428;13.584;2023-05-06T01:11:15;101437.25;;;12.07;73.47
23016;BME280;11674;52.428;13.584;2023-05-06T01:16:27;101432.84;;;12.01;74.22
23016;BME280;11674;52.428;13.584;2023-05-06T01:21:35;101431.72;;;12.02;74.67
23016;BME280;11674;52.428;13.584;2023-05-06T01:26:45;101415.84;;;12.02;74.90
23016;BME280;11674;52.428;13.584;2023-05-06T01:31:54;101421.47;;;11.92;75.05
23016;BME280;11674;52.428;13.584;2023-05-06T01:37:10;101414.53;;;11.90;75.64
23016;BME280;11674;52.428;13.584;2023-05-06T01:42:21;101414.53;;;11.90;75.68
23016;BME280;11674;52.428;13.584;2023-05-06T01:47:30;101407.88;;;11.81;75.76
23016;BME280;11674;52.428;13.584;2023-05-06T01:52:38;101410.69;;;11.71;76.12
23016;BME280;11674;52.428;13.584;2023-05-06T01:57:46;101395.16;;;11.60;76.35
23016;BME280;11674;52.428;13.584;2023-05-06T02:02:53;101387.06;;;11.48;76.50
23016;BME280;11674;52.428;13.584;2023-05-06T02:08:00;101385.44;;;11.37;76.74
23016;BME280;11674;52.428;13.584;2023-05-06T02:13:08;101376.03;;;11.28;77.09
23016;BME280;11674;52.428;13.584;2023-05-06T02:18:15;101382.66;;;11.27;77.13
23016;BME280;11674;52.428;13.584;2023-05-06T02:23:22;101381.56;;;11.33;77.25
23016;BME280;11674;52.428;13.584;2023-05-06T02:28:29;101399.63;;;11.31;77.31
23016;BME280;11674;52.428;13.584;2023-05-06T02:33:36;101399.06;;;11.29;77.55
23016;BME280;11674;52.428;13.584;2023-05-06T02:38:44;101399.06;;;11.34;77.67
23016;BME280;11674;52.428;13.584;2023-05-06T02:43:51;101402.69;;;11.29;77.67
23016;BME280;11674;52.428;13.584;2023-05-06T02:48:59;101402.13;;;11.22;77.77
23016;BME280;11674;52.428;13.584;2023-05-06T02:54:06;101407.97;;;11.11;78.24
23016;BME280;11674;52.428;13.584;2023-05-06T02:59:13;101407.41;;;11.09;78.36
23016;BME280;11674;52.428;13.584;2023-05-06T03:04:20;101397.41;;;11.08;78.52
23016;BME280;11674;52.428;13.584;2023-05-06T03:09:33;101399.09;;;10.94;78.62
23016;BME280;11674;52.428;13.584;2023-05-06T03:14:41;101407.69;;;10.92;78.83
23016;BME280;11674;52.428;13.584;2023-05-06T03:19:49;101392.69;;;10.83;79.03
23016;BME280;11674;52.428;13.584;2023-05-06T03:24:56;101382.69;;;10.77;78.89
23016;BME280;11674;52.428;13.584;2023-05-06T03:30:05;101387.97;;;10.74;79.09
23016;BME280;11674;52.428;13.584;2023-05-06T03:35:12;101376.88;;;10.74;79.25
23016;BME280;11674;52.428;13.584;2023-05-06T03:40:24;101372.97;;;10.70;79.34
23016;BME280;11674;52.428;13.584;2023-05-06T03:45:32;101372.16;;;10.69;79.38
23016;BME280;11674;52.428;13.584;2023-05-06T03:50:39;101374.91;;;10.74;79.56
23016;BME280;11674;52.428;13.584;2023-05-06T03:55:47;101369.38;;;10.74;79.25
23016;BME280;11674;52.428;13.584;2023-05-06T04:00:55;101371.59;;;10.62;79.23
23016;BME280;11674;52.428;13.584;2023-05-06T04:06:02;101362.44;;;10.52;79.38
23016;BME280;11674;52.428;13.584;2023-05-06T04:11:25;101369.34;;;10.49;79.51
23016;BME280;11674;52.428;13.584;2023-05-06T04:16:35;101371.56;;;10.47;79.49
23016;BME280;11674;52.428;13.584;2023-05-06T04:21:42;101367.72;;;10.53;79.67
23016;BME280;11674;52.428;13.584;2023-05-06T04:26:51;101370.75;;;10.52;79.53
23016;BME280;11674;52.428;13.584;2023-05-06T04:31:58;101376.28;;;10.52;79.73
23016;BME280;11674;52.428;13.584;2023-05-06T04:37:08;101377.94;;;10.43;79.58
23016;BME280;11674;52.428;13.584;2023-05-06T04:42:20;101372.66;;;10.36;79.62
23016;BME280;11674;52.428;13.584;2023-05-06T04:47:38;101393.19;;;10.40;79.81
23016;BME280;11674;52.428;13.584;2023-05-06T04:52:45;101384.31;;;10.43;79.81
23016;BME280;11674;52.428;13.584;2023-05-06T04:57:53;101387.66;;;10.50;80.14
23016;BME280;11674;52.428;13.584;2023-05-06T05:03:00;101388.22;;;10.57;80.20
23016;BME280;11674;52.428;13.584;2023-05-06T05:08:08;101394.06;;;10.56;79.89
23016;BME280;11674;52.428;13.584;2023-05-06T05:13:15;101398.78;;;10.65;80.16
23016;BME280;11674;52.428;13.584;2023-05-06T05:18:23;101409.06;;;10.75;80.11
23016;BME280;11674;52.428;13.584;2023-05-06T05:23:36;101411.84;;;10.80;80.38
23016;BME280;11674;52.428;13.584;2023-05-06T05:28:44;101419.03;;;10.76;79.84
23016;BME280;11674;52.428;13.584;2023-05-06T05:33:51;101420.72;;;10.67;80.16
23016;BME280;11674;52.428;13.584;2023-05-06T05:38:58;101411.00;;;10.69;80.04
23016;BME280;11674;52.428;13.584;2023-05-06T05:44:08;101408.50;;;10.63;80.05
23016;BME280;11674;52.428;13.584;2023-05-06T05:49:15;101412.06;;;10.58;80.13
23016;BME280;11674;52.428;13.584;2023-05-06T05:54:26;101419.56;;;10.53;80.30
23016;BME280;11674;52.428;13.584;2023-05-06T05:59:33;101422.34;;;10.58;80.13
23016;BME280;11674;52.428;13.584;2023-05-06T06:04:40;101427.63;;;10.54;80.05
23016;BME280;11674;52.428;13.584;2023-05-06T06:09:48;101427.03;;;10.47;79.99
23016;BME280;11674;52.428;13.584;2023-05-06T06:14:55;101427.56;;;10.39;79.90
23016;BME280;11674;52.428;13.584;2023-05-06T06:20:03;101429.53;;;10.49;80.40
23016;BME280;11674;52.428;13.584;2023-05-06T06:25:11;101431.50;;;10.53;80.13
23016;BME280;11674;52.428;13.584;2023-05-06T06:30:18;101431.19;;;10.40;80.01
23016;BME280;11674;52.428;13.584;2023-05-06T06:35:25;101442.56;;;10.38;80.38
23016;BME280;11674;52.428;13.584;2023-05-06T06:40:32;101442.59;;;10.48;80.48
23016;BME280;11674;52.428;13.584;2023-05-06T06:45:39;101445.63;;;10.47;80.50
23016;BME280;11674;52.428;13.584;2023-05-06T06:50:46;101445.91;;;10.45;80.22
23016;BME280;11674;52.428;13.584;2023-05-06T06:55:53;101455.03;;;10.41;80.25
23016;BME280;11674;52.428;13.584;2023-05-06T07:01:00;101449.50;;;10.41;80.25
23016;BME280;11674;52.428;13.584;2023-05-06T07:06:07;101453.91;;;10.37;80.36
23016;BME280;11674;52.428;13.584;2023-05-06T07:11:14;101458.09;;;10.39;80.58
23016;BME280;11674;52.428;13.584;2023-05-06T07:16:21;101458.09;;;10.39;80.44
23016;BME280;11674;52.428;13.584;2023-05-06T07:21:28;101453.03;;;10.31;80.47
23016;BME280;11674;52.428;13.584;2023-05-06T07:26:35;101464.44;;;10.30;80.51
23016;BME280;11674;52.428;13.584;2023-05-06T07:31:42;101461.38;;;10.36;81.01
23016;BME280;11674;52.428;13.584;2023-05-06T07:36:49;101459.50;;;10.47;81.07
23016;BME280;11674;52.428;13.584;2023-05-06T07:41:56;101459.78;;;10.55;80.69
23016;BME280;11674;52.428;13.584;2023-05-06T07:47:03;101466.19;;;10.56;80.73
23016;BME280;11674;52.428;13.584;2023-05-06T07:52:10;101466.19;;;10.56;80.70
23016;BME280;11674;52.428;13.584;2023-05-06T07:57:17;101463.13;;;10.57;80.72
23016;BME280;11674;52.428;13.584;2023-05-06T08:02:24;101477.00;;;10.62;81.06
23016;BME280;11674;52.428;13.584;2023-05-06T08:07:31;101472.88;;;10.70;80.89
23016;BME280;11674;52.428;13.584;2023-05-06T08:12:38;101475.94;;;10.73;81.01
23016;BME280;11674;52.428;13.584;2023-05-06T08:17:45;101489.84;;;10.88;81.21
23016;BME280;11674;52.428;13.584;2023-05-06T08:22:52;101491.78;;;10.93;81.03
23016;BME280;11674;52.428;13.584;2023-05-06T08:27:59;101496.78;;;10.96;80.99
23016;BME280;11674;52.428;13.584;2023-05-06T08:33:06;101503.47;;;10.95;80.94
23016;BME280;11674;52.428;13.584;2023-05-06T08:38:13;101505.69;;;11.03;81.27
23016;BME280;11674;52.428;13.584;2023-05-06T08:43:20;101502.91;;;11.08;81.30
23016;BME280;11674;52.428;13.584;2023-05-06T08:48:27;101499.34;;;11.17;81.14
23016;BME280;11674;52.428;13.584;2023-05-06T08:53:34;101510.16;;;11.24;81.42
23016;BME280;11674;52.428;13.584;2023-05-06T08:58:43;101517.38;;;11.35;81.06
23016;BME280;11674;52.428;13.584;2023-05-06T09:03:51;101522.94;;;11.40;81.31
23016;BME280;11674;52.428;13.584;2023-05-06T09:08:58;101534.63;;;11.37;81.17
23016;BME280;11674;52.428;13.584;2023-05-06T09:14:07;101537.94;;;11.34;80.74
23016;BME280;11674;52.428;13.584;2023-05-06T09:19:17;101535.72;;;11.31;81.08
23016;BME280;11674;52.428;13.584;2023-05-06T09:24:24;101532.97;;;11.36;81.34
23016;BME280;11674;52.428;13.584;2023-05-06T09:29:31;101536.03;;;11.44;81.23
23016;BME280;11674;52.428;13.584;2023-05-06T09:34:38;101546.03;;;11.55;81.31
23016;BME280;11674;52.428;13.584;2023-05-06T09:39:45;101539.94;;;11.68;80.85
23016;BME280;11674;52.428;13.584;2023-05-06T09:44:53;101548.00;;;11.75;81.08
23016;BME280;11674;52.428;13.584;2023-05-06T09:50:01;101553.56;;;11.80;81.17
23016;BME280;11674;52.428;13.584;2023-05-06T09:55:10;101544.91;;;11.86;81.12
23016;BME280;11674;52.428;13.584;2023-05-06T10:00:17;101551.84;;;11.89;80.85
23016;BME280;11674;52.428;13.584;2023-05-06T10:05:24;101559.91;;;11.95;81.17
23016;BME280;11674;52.428;13.584;2023-05-06T10:10:33;101561.28;;;12.03;80.97
23016;BME280;11674;52.428;13.584;2023-05-06T10:15:41;101556.00;;;12.06;81.10
23016;BME280;11674;52.428;13.584;2023-05-06T10:20:48;101567.13;;;12.01;80.65
23016;BME280;11674;52.428;13.584;2023-05-06T10:26:05;101560.19;;;11.99;81.02
23016;BME280;11674;52.428;13.584;2023-05-06T10:31:12;101554.88;;;12.07;80.79
23016;BME280;11674;52.428;13.584;2023-05-06T10:36:21;101570.75;;;11.97;80.55
23016;BME280;11674;52.428;13.584;2023-05-06T10:41:29;101565.78;;;11.84;80.30
23016;BME280;11674;52.428;13.584;2023-05-06T10:46:57;101567.72;;;11.73;80.41
23016;BME280;11674;52.428;13.584;2023-05-06T10:52:13;101570.78;;;11.72;80.72
23016;BME280;11674;52.428;13.584;2023-05-06T10:57:21;101571.63;;;11.62;80.42
23016;BME280;11674;52.428;13.584;2023-05-06T11:02:28;101578.28;;;11.61;80.56
23016;BME280;11674;52.428;13.584;2023-05-06T11:07:35;101579.91;;;11.47;80.48
23016;BME280;11674;52.428;13.584;2023-05-06T11:12:43;101585.19;;;11.44;80.68
23016;BME280;11674;52.428;13.584;2023-05-06T11:17:51;101584.94;;;11.55;80.96
23016;BME280;11674;52.428;13.584;2023-05-06T11:22:59;101587.44;;;11.67;80.63
23016;BME280;11674;52.428;13.584;2023-05-06T11:28:10;101596.91;;;11.66;80.41
23016;BME280;11674;52.428;13.584;2023-05-06T11:33:18;101595.25;;;11.70;80.81
23016;BME280;11674;52.428;13.584;2023-05-06T11:38:26;101602.47;;;11.71;80.71
23016;BME280;11674;52.428;13.584;2023-05-06T11:43:48;101615.19;;;11.57;80.32
23016;BME280;11674;52.428;13.584;2023-05-06T11:48:55;101617.41;;;11.50;80.76
23016;BME280;11674;52.428;13.584;2023-05-06T11:54:07;101621.31;;;11.49;80.73
23016;BME280;11674;52.428;13.584;2023-05-06T11:59:14;101629.09;;;11.57;80.76
23016;BME280;11674;52.428;13.584;2023-05-06T12:04:21;101637.44;;;11.52;80.77
23016;BME280;11674;52.428;13.584;2023-05-06T12:09:28;101646.59;;;11.52;80.65
23016;BME280;11674;52.428;13.584;2023-05-06T12:14:36;101643.81;;;11.52;80.52
23016;BME280;11674;52.428;13.584;2023-05-06T12:19:45;101657.97;;;11.36;80.13
23016;BME280;11674;52.428;13.584;2023-05-06T12:24:52;101658.75;;;11.26;80.27
23016;BME280;11674;52.428;13.584;2023-05-06T12:29:59;101670.44;;;11.28;80.75
23016;BME280;11674;52.428;13.584;2023-05-06T12:35:06;101680.47;;;11.39;80.49
23016;BME280;11674;52.428;13.584;2023-05-06T12:40:16;101678.78;;;11.38;80.40
23016;BME280;11674;52.428;13.584;2023-05-06T12:45:23;101670.47;;;11.43;80.73
23016;BME280;11674;52.428;13.584;2023-05-06T12:50:35;101681.56;;;11.38;80.73
23016;BME280;11674;52.428;13.584;2023-05-06T12:55:42;101693.25;;;11.40;80.65
23016;BME280;11674;52.428;13.584;2023-05-06T13:00:49;101697.41;;;11.38;80.54
23016;BME280;11674;52.428;13.584;2023-05-06T13:05:56;101716.28;;;11.41;80.38
23016;BME280;11674;52.428;13.584;2023-05-06T13:11:03;101711.06;;;11.44;80.63
23016;BME280;11674;52.428;13.584;2023-05-06T13:16:10;101721.25;;;11.29;80.02
23016;BME280;11674;52.428;13.584;2023-05-06T13:21:17;101726.47;;;11.15;80.24
23016;BME280;11674;52.428;13.584;2023-05-06T13:26:24;101723.41;;;11.12;80.46
23016;BME280;11674;52.428;13.584;2023-05-06T13:31:31;101722.59;;;11.16;80.45
23016;BME280;11674;52.428;13.584;2023-05-06T13:36:38;101722.59;;;11.21;80.75
23016;BME280;11674;52.428;13.584;2023-05-06T13:41:45;101718.72;;;11.22;80.51
23016;BME280;11674;52.428;13.584;2023-05-06T13:46:52;101733.69;;;11.16;80.60
23016;BME280;11674;52.428;13.584;2023-05-06T13:52:06;101726.72;;;11.09;80.68
23016;BME280;11674;52.428;13.584;2023-05-06T13:57:13;101730.66;;;11.18;80.91
23016;BME280;11674;52.428;13.584;2023-05-06T14:02:20;101732.63;;;11.27;80.85
23016;BME280;11674;52.428;13.584;2023-05-06T14:07:27;101731.78;;;11.22;80.96
23016;BME280;11674;52.428;13.584;2023-05-06T14:12:34;101730.19;;;11.31;80.82
23016;BME280;11674;52.428;13.584;2023-05-06T14:17:41;101731.81;;;11.27;80.86
23016;BME280;11674;52.428;13.584;2023-05-06T14:22:48;101727.63;;;11.24;80.99
23016;BME280;11674;52.428;13.584;2023-05-06T14:27:55;101725.16;;;11.33;81.02
23016;BME280;11674;52.428;13.584;2023-05-06T14:33:02;101715.16;;;11.32;81.24
23016;BME280;11674;52.428;13.584;2023-05-06T14:38:09;101719.06;;;11.31;81.09
23016;BME280;11674;52.428;13.584;2023-05-06T14:43:16;101724.09;;;11.44;81.27
23016;BME280;11674;52.428;13.584;2023-05-06T14:48:23;101732.69;;;11.42;80.99
23016;BME280;11674;52.428;13.584;2023-05-06T14:53:30;101735.75;;;11.41;80.77
23016;BME280;11674;52.428;13.584;2023-05-06T14:58:37;101733.25;;;11.39;81.01
23016;BME280;11674;52.428;13.584;2023-05-06T15:03:57;101726.28;;;11.32;81.04
23016;BME280;11674;52.428;13.584;2023-05-06T15:09:13;101736.84;;;11.35;81.10
23016;BME280;11674;52.428;13.584;2023-05-06T15:14:20;101744.94;;;11.46;81.24
23016;BME280;11674;52.428;13.584;2023-05-06T15:19:27;101754.19;;;11.62;81.15
23016;BME280;11674;52.428;13.584;2023-05-06T15:24:34;101761.72;;;11.61;80.99
23016;BME280;11674;52.428;13.584;2023-05-06T15:29:41;101755.88;;;11.63;80.89
23016;BME280;11674;52.428;13.584;2023-05-06T15:34:48;101756.91;;;11.57;80.91
23016;BME280;11674;52.428;13.584;2023-05-06T15:39:55;101766.38;;;11.56;81.13
23016;BME280;11674;52.428;13.584;2023-05-06T15:45:03;101755.50;;;11.54;80.84
23016;BME280;11674;52.428;13.584;2023-05-06T15:50:10;101765.53;;;11.50;80.97
23016;BME280;11674;52.428;13.584;2023-05-06T15:55:17;101750.78;;;11.50;81.00
23016;BME280;11674;52.428;13.584;2023-05-06T16:00:24;101759.41;;;11.53;80.77
23016;BME280;11674;52.428;13.584;2023-05-06T16:05:31;101756.59;;;11.48;80.84
23016;BME280;11674;52.428;13.584;2023-05-06T16:10:38;101774.16;;;11.54;80.99
23016;BME280;11674;52.428;13.584;2023-05-06T16:15:46;101761.72;;;11.61;81.03
23016;BME280;11674;52.428;13.584;2023-05-06T16:20:53;101767.56;;;11.65;80.55
23016;BME280;11674;52.428;13.584;2023-05-06T16:26:00;101765.25;;;11.57;80.81
23016;BME280;11674;52.428;13.584;2023-05-06T16:31:07;101772.50;;;11.58;80.86
23016;BME280;11674;52.428;13.584;2023-05-06T16:36:14;101779.16;;;11.57;80.82
23016;BME280;11674;52.428;13.584;2023-05-06T16:41:21;101776.41;;;11.62;81.04
23016;BME280;11674;52.428;13.584;2023-05-06T16:46:28;101787.03;;;11.70;81.17
23016;BME280;11674;52.428;13.584;2023-05-06T16:51:35;101781.50;;;11.75;81.12
23016;BME280;11674;52.428;13.584;2023-05-06T16:56:42;101782.88;;;11.77;81.04
23016;BME280;11674;52.428;13.584;2023-05-06T17:01:49;101797.06;;;11.76;80.87
23016;BME280;11674;52.428;13.584;2023-05-06T17:06:56;101790.38;;;11.77;81.18
23016;BME280;11674;52.428;13.584;2023-05-06T17:12:04;101791.50;;;11.76;80.85
23016;BME280;11674;52.428;13.584;2023-05-06T17:17:11;101800.38;;;11.73;80.90
23016;BME280;11674;52.428;13.584;2023-05-06T17:22:19;101812.88;;;11.65;80.95
23016;BME280;11674;52.428;13.584;2023-05-06T17:27:26;101824.53;;;11.62;80.88
23016;BME280;11674;52.428;13.584;2023-05-06T17:32:33;101823.66;;;11.62;80.83
23016;BME280;11674;52.428;13.584;2023-05-06T17:37:40;101815.06;;;11.63;80.99
23016;BME280;11674;52.428;13.584;2023-05-06T17:42:47;101814.81;;;11.65;80.94
23016;BME280;11674;52.428;13.584;2023-05-06T17:47:54;101811.16;;;11.59;80.77
23016;BME280;11674;52.428;13.584;2023-05-06T17:53:01;101823.88;;;11.50;81.02
23016;BME280;11674;52.428;13.584;2023-05-06T17:58:15;101827.19;;;11.47;81.00
23016;BME280;11674;52.428;13.584;2023-05-06T18:03:22;101818.84;;;11.47;81.23
23016;BME280;11674;52.428;13.584;2023-05-06T18:08:29;101823.03;;;11.50;81.18
23016;BME280;11674;52.428;13.584;2023-05-06T18:13:36;101838.34;;;11.52;81.28
23016;BME280;11674;52.428;13.584;2023-05-06T18:18:43;101830.53;;;11.54;81.22
23016;BME280;11674;52.428;13.584;2023-05-06T18:23:50;101840.00;;;11.53;81.25
23016;BME280;11674;52.428;13.584;2023-05-06T18:28:57;101836.94;;;11.55;80.98
23016;BME280;11674;52.428;13.584;2023-05-06T18:34:04;101838.88;;;11.49;81.11
23016;BME280;11674;52.428;13.584;2023-05-06T18:39:11;101844.41;;;11.44;81.25
23016;BME280;11674;52.428;13.584;2023-05-06T18:44:18;101854.41;;;11.45;80.93
23016;BME280;11674;52.428;13.584;2023-05-06T18:49:25;101856.09;;;11.46;81.21
23016;BME280;11674;52.428;13.584;2023-05-06T18:54:32;101864.41;;;11.46;81.17
23016;BME280;11674;52.428;13.584;2023-05-06T18:59:39;101860.50;;;11.42;81.05
23016;BME280;11674;52.428;13.584;2023-05-06T19:04:46;101862.97;;;11.39;81.17
23016;BME280;11674;52.428;13.584;2023-05-06T19:09:53;101864.66;;;11.40;81.09
23016;BME280;11674;52.428;13.584;2023-05-06T19:15:00;101869.09;;;11.36;81.01
23016;BME280;11674;52.428;13.584;2023-05-06T19:20:08;101865.72;;;11.34;81.16
23016;BME280;11674;52.428;13.584;2023-05-06T19:25:14;101875.69;;;11.30;81.11
23016;BME280;11674;52.428;13.584;2023-05-06T19:30:21;101882.63;;;11.27;81.18
23016;BME280;11674;52.428;13.584;2023-05-06T19:35:28;101877.06;;;11.27;81.34
23016;BME280;11674;52.428;13.584;2023-05-06T19:40:36;101869.03;;;11.26;81.21
23016;BME280;11674;52.428;13.584;2023-05-06T19:45:43;101880.66;;;11.23;81.35
23016;BME280;11674;52.428;13.584;2023-05-06T19:50:50;101887.63;;;11.25;81.51
23016;BME280;11674;52.428;13.584;2023-05-06T19:55:57;101876.50;;;11.25;81.15
23016;BME280;11674;52.428;13.584;2023-05-06T20:01:04;101872.88;;;11.25;81.47
23016;BME280;11674;52.428;13.584;2023-05-06T20:06:11;101871.22;;;11.24;81.24
23016;BME280;11674;52.428;13.584;2023-05-06T20:11:18;101882.06;;;11.25;81.50
23016;BME280;11674;52.428;13.584;2023-05-06T20:16:25;101878.13;;;11.21;81.61
23016;BME280;11674;52.428;13.584;2023-05-06T20:21:32;101889.25;;;11.21;81.65
23016;BME280;11674;52.428;13.584;2023-05-06T20:26:39;101890.13;;;11.27;81.78
23016;BME280;11674;52.428;13.584;2023-05-06T20:31:46;101891.28;;;11.31;81.69
23016;BME280;11674;52.428;13.584;2023-05-06T20:36:53;101881.22;;;11.25;81.72
23016;BME280;11674;52.428;13.584;2023-05-06T20:42:00;101894.28;;;11.24;81.66
23016;BME280;11674;52.428;13.584;2023-05-06T20:47:07;101890.13;;;11.27;81.75
23016;BME280;11674;52.428;13.584;2023-05-06T20:52:14;101897.38;;;11.28;81.66
23016;BME280;11674;52.428;13.584;2023-05-06T20:57:21;101897.88;;;11.25;81.71
23016;BME280;11674;52.428;13.584;2023-05-06T21:02:28;101901.22;;;11.22;81.58
23016;BME280;11674;52.428;13.584;2023-05-06T21:07:35;101899.81;;;11.19;81.74
23016;BME280;11674;52.428;13.584;2023-05-06T21:12:49;101906.47;;;11.18;81.55
23016;BME280;11674;52.428;13.584;2023-05-06T21:17:56;101905.31;;;11.14;81.72
23016;BME280;11674;52.428;13.584;2023-05-06T21:23:03;101911.41;;;11.11;81.59
23016;BME280;11674;52.428;13.584;2023-05-06T21:28:10;101905.84;;;11.11;81.76
23016;BME280;11674;52.428;13.584;2023-05-06T21:33:17;101906.66;;;11.07;81.62
23016;BME280;11674;52.428;13.584;2023-05-06T21:38:24;101899.16;;;11.07;81.56
23016;BME280;11674;52.428;13.584;2023-05-06T21:43:31;101902.50;;;11.09;81.92
23016;BME280;11674;52.428;13.584;2023-05-06T21:48:38;101898.88;;;11.09;81.81
23016;BME280;11674;52.428;13.584;2023-05-06T21:53:49;101907.19;;;11.09;81.92
23016;BME280;11674;52.428;13.584;2023-05-06T21:58:56;101912.75;;;11.09;81.82
23016;BME280;11674;52.428;13.584;2023-05-06T22:04:03;101908.91;;;11.10;81.54
23016;BME280;11674;52.428;13.584;2023-05-06T22:09:10;101917.19;;;11.05;81.77
23016;BME280;11674;52.428;13.584;2023-05-06T22:14:17;101902.19;;;11.06;81.89
23016;BME280;11674;52.428;13.584;2023-05-06T22:19:24;101902.75;;;11.08;81.77
23016;BME280;11674;52.428;13.584;2023-05-06T22:24:31;101912.75;;;11.04;81.73
23016;BME280;11674;52.428;13.584;2023-05-06T22:29:38;101917.97;;;11.00;81.91
23016;BME280;11674;52.428;13.584;2023-05-06T22:34:45;101913.81;;;11.03;81.80
23016;BME280;11674;52.428;13.584;2023-05-06T22:39:54;101915.53;;;11.04;82.02
23016;BME280;11674;52.428;13.584;2023-05-06T22:45:01;101918.31;;;11.09;81.95
23016;BME280;11674;52.428;13.584;2023-05-06T22:50:09;101923.66;;;11.15;82.27
23016;BME280;11674;52.428;13.584;2023-05-06T22:55:15;101927.28;;;11.16;81.84
23016;BME280;11674;52.428;13.584;2023-05-06T23:00:22;101923.94;;;11.19;82.11
23016;BME280;11674;52.428;13.584;2023-05-06T23:05:29;101926.22;;;11.22;82.17
23016;BME280;11674;52.428;13.584;2023-05-06T23:10:36;101940.13;;;11.27;82.01
23016;BME280;11674;52.428;13.584;2023-05-06T23:15:43;101938.19;;;11.27;82.05
23016;BME280;11674;52.428;13.584;2023-05-06T23:20:50;101936.00;;;11.29;82.08
23016;BME280;11674;52.428;13.584;2023-05-06T23:25:57;101934.38;;;11.33;81.99
23016;BME280;11674;52.428;13.584;2023-05-06T23:31:04;101938.22;;;11.32;81.90
23016;BME280;11674;52.428;13.584;2023-05-06T23:36:11;101933.50;;;11.33;81.86
23016;BME280;11674;52.428;13.584;2023-05-06T23:41:18;101924.66;;;11.36;81.90
23016;BME280;11674;52.428;13.584;2023-05-06T23:46:25;101928.00;;;11.38;82.22
23016;BME280;11674;52.428;13.584;2023-05-06T23:51:32;101934.69;;;11.42;82.22
23016;BME280;11674;52.428;13.584;2023-05-06T23:56:39;101943.06;;;11.47;82.00
